sensor_id;sensor_type;location;lat;lon;timestamp;pressure;altitude;pressure_sealevel;temperature;humidity
40285;BME280;25997;50.214;19.354;2023-03-20T00:00:36;97777.25;;;8.26;36.19
40285;BME280;25997;50.214;19.354;2023-03-20T00:03:39;97769.16;;;8.18;36.53
40285;BME280;25997;50.214;19.354;2023-03-20T00:06:42;97767.41;;;8.17;36.33
40285;BME280;25997;50.214;19.354;2023-03-20T00:09:44;97769.09;;;8.15;36.54
40285;BME280;25997;50.214;19.354;2023-03-20T00:12:49;97766.34;;;8.12;36.62
40285;BME280;25997;50.214;19.354;2023-03-20T00:15:51;97761.81;;;8.07;36.84
40285;BME280;25997;50.214;19.354;2023-03-20T00:18:54;97762.66;;;8.06;36.90
40285;BME280;25997;50.214;19.354;2023-03-20T00:21:57;97766.19;;;8.06;36.91
40285;BME280;25997;50.214;19.354;2023-03-20T00:24:59;97765.28;;;8.06;37.17
40285;BME280;25997;50.214;19.354;2023-03-20T00:28:25;97758.34;;;8.06;37.69
40285;BME280;25997;50.214;19.354;2023-03-20T00:31:31;97765.19;;;8.03;37.12
40285;BME280;25997;50.214;19.354;2023-03-20T00:34:34;97762.53;;;8.01;37.29
40285;BME280;25997;50.214;19.354;2023-03-20T00:37:37;97755.59;;;8.02;37.36
40285;BME280;25997;50.214;19.354;2023-03-20T00:40:39;97762.38;;;7.97;37.54
40285;BME280;25997;50.214;19.354;2023-03-20T00:43:46;97756.19;;;7.93;37.70
40285;BME280;25997;50.214;19.354;2023-03-20T00:46:52;97755.28;;;7.93;37.72
40285;BME280;25997;50.214;19.354;2023-03-20T00:49:55;97753.47;;;7.90;37.85
40285;BME280;25997;50.214;19.354;2023-03-20T00:52:58;97746.56;;;7.92;37.65
40285;BME280;25997;50.214;19.354;2023-03-20T00:56:01;97756.13;;;7.92;37.69
40285;BME280;25997;50.214;19.354;2023-03-20T00:59:05;97753.50;;;7.92;37.87
40285;BME280;25997;50.214;19.354;2023-03-20T01:02:09;97755.28;;;7.93;37.73
40285;BME280;25997;50.214;19.354;2023-03-20T01:05:12;97751.75;;;7.91;37.77
40285;BME280;25997;50.214;19.354;2023-03-20T01:08:16;97747.34;;;7.90;37.90
40285;BME280;25997;50.214;19.354;2023-03-20T01:11:22;97749.81;;;7.85;38.07
40285;BME280;25997;50.214;19.354;2023-03-20T01:14:26;97741.81;;;7.80;38.05
40285;BME280;25997;50.214;19.354;2023-03-20T01:17:29;97746.16;;;7.80;38.11
40285;BME280;25997;50.214;19.354;2023-03-20T01:20:31;97749.59;;;7.77;38.30
40285;BME280;25997;50.214;19.354;2023-03-20T01:23:34;97738.88;;;7.70;38.49
40285;BME280;25997;50.214;19.354;2023-03-20T01:26:38;97743.94;;;7.65;38.76
40285;BME280;25997;50.214;19.354;2023-03-20T01:29:44;97742.09;;;7.63;38.76
40285;BME280;25997;50.214;19.354;2023-03-20T01:32:47;97745.88;;;7.71;38.75
40285;BME280;25997;50.214;19.354;2023-03-20T01:35:50;97740.44;;;7.65;38.91
40285;BME280;25997;50.214;19.354;2023-03-20T01:38:54;97746.66;;;7.68;38.69
40285;BME280;25997;50.214;19.354;2023-03-20T01:41:58;97742.31;;;7.69;38.74
40285;BME280;25997;50.214;19.354;2023-03-20T01:45:14;97748.34;;;7.66;39.33
40285;BME280;25997;50.214;19.354;2023-03-20T01:48:18;97753.56;;;7.66;38.92
40285;BME280;25997;50.214;19.354;2023-03-20T01:51:21;97748.06;;;7.59;39.10
40285;BME280;25997;50.214;19.354;2023-03-20T01:54:28;97751.34;;;7.53;39.34
40285;BME280;25997;50.214;19.354;2023-03-20T01:57:44;97753.81;;;7.49;39.37
40285;BME280;25997;50.214;19.354;2023-03-20T02:00:48;97746.00;;;7.49;39.48
40285;BME280;25997;50.214;19.354;2023-03-20T02:03:53;97756.44;;;7.49;39.37
40285;BME280;25997;50.214;19.354;2023-03-20T02:07:22;97756.47;;;7.50;39.49
40285;BME280;25997;50.214;19.354;2023-03-20T02:10:38;97756.47;;;7.50;39.69
40285;BME280;25997;50.214;19.354;2023-03-20T02:14:00;97759.13;;;7.52;39.44
40285;BME280;25997;50.214;19.354;2023-03-20T02:17:12;97759.25;;;7.55;39.46
40285;BME280;25997;50.214;19.354;2023-03-20T02:20:35;97756.78;;;7.59;39.57
40285;BME280;25997;50.214;19.354;2023-03-20T02:27:32;97761.69;;;7.75;39.05
40285;BME280;25997;50.214;19.354;2023-03-20T02:30:51;97753.16;;;7.81;39.29
40285;BME280;25997;50.214;19.354;2023-03-20T02:38:20;97759.59;;;7.91;39.38
40285;BME280;25997;50.214;19.354;2023-03-20T02:41:29;97751.59;;;7.86;38.99
40285;BME280;25997;50.214;19.354;2023-03-20T02:44:39;97746.41;;;7.88;38.67
40285;BME280;25997;50.214;19.354;2023-03-20T02:47:50;97753.50;;;7.92;38.61
40285;BME280;25997;50.214;19.354;2023-03-20T02:50:58;97749.13;;;7.91;38.83
40285;BME280;25997;50.214;19.354;2023-03-20T02:54:12;97745.50;;;7.87;39.18
40285;BME280;25997;50.214;19.354;2023-03-20T02:57:23;97747.97;;;7.82;39.16
40285;BME280;25997;50.214;19.354;2023-03-20T03:00:32;97754.06;;;7.81;39.17
40285;BME280;25997;50.214;19.354;2023-03-20T03:03:41;97746.06;;;7.77;39.32
40285;BME280;25997;50.214;19.354;2023-03-20T03:06:46;97749.50;;;7.76;39.26
40285;BME280;25997;50.214;19.354;2023-03-20T03:09:55;97744.22;;;7.73;39.41
40285;BME280;25997;50.214;19.354;2023-03-20T03:13:00;97747.59;;;7.70;39.42
40285;BME280;25997;50.214;19.354;2023-03-20T03:16:07;97742.41;;;7.72;39.53
40285;BME280;25997;50.214;19.354;2023-03-20T03:19:15;97744.84;;;7.66;39.51
40285;BME280;25997;50.214;19.354;2023-03-20T03:22:20;97741.53;;;7.71;39.34
40285;BME280;25997;50.214;19.354;2023-03-20T03:25:27;97745.00;;;7.70;39.47
40285;BME280;25997;50.214;19.354;2023-03-20T03:28:33;97744.09;;;7.70;39.50
40285;BME280;25997;50.214;19.354;2023-03-20T03:31:39;97730.91;;;7.67;39.60
40285;BME280;25997;50.214;19.354;2023-03-20T03:34:42;97732.72;;;7.68;39.60
40285;BME280;25997;50.214;19.354;2023-03-20T03:37:52;97728.56;;;7.74;39.77
40285;BME280;25997;50.214;19.354;2023-03-20T03:41:09;97734.28;;;7.64;40.15
40285;BME280;25997;50.214;19.354;2023-03-20T03:44:21;97732.50;;;7.62;39.72
40285;BME280;25997;50.214;19.354;2023-03-20T03:47:29;97731.63;;;7.63;40.00
40285;BME280;25997;50.214;19.354;2023-03-20T03:50:37;97740.38;;;7.63;40.03
40285;BME280;25997;50.214;19.354;2023-03-20T03:53:49;97735.09;;;7.62;40.14
40285;BME280;25997;50.214;19.354;2023-03-20T03:56:57;97736.78;;;7.60;40.01
40285;BME280;25997;50.214;19.354;2023-03-20T04:00:02;97734.94;;;7.57;40.04
40285;BME280;25997;50.214;19.354;2023-03-20T04:03:14;97736.53;;;7.52;40.34
40285;BME280;25997;50.214;19.354;2023-03-20T04:06:19;97739.88;;;7.48;40.16
40285;BME280;25997;50.214;19.354;2023-03-20T04:09:24;97737.25;;;7.48;40.22
40285;BME280;25997;50.214;19.354;2023-03-20T04:12:33;97738.00;;;7.44;40.57
40285;BME280;25997;50.214;19.354;2023-03-20T04:15:37;97739.66;;;7.42;40.52
40285;BME280;25997;50.214;19.354;2023-03-20T04:18:41;97738.72;;;7.40;40.60
40285;BME280;25997;50.214;19.354;2023-03-20T04:21:47;97738.47;;;7.33;40.74
40285;BME280;25997;50.214;19.354;2023-03-20T04:24:50;97741.97;;;7.33;40.75
40285;BME280;25997;50.214;19.354;2023-03-20T04:27:54;97734.97;;;7.32;40.66
40285;BME280;25997;50.214;19.354;2023-03-20T04:31:22;97737.75;;;7.37;40.65
40285;BME280;25997;50.214;19.354;2023-03-20T04:34:36;97739.38;;;7.33;40.53
40285;BME280;25997;50.214;19.354;2023-03-20T04:37:58;97729.84;;;7.35;40.58
40285;BME280;25997;50.214;19.354;2023-03-20T04:41:05;97734.28;;;7.38;40.38
40285;BME280;25997;50.214;19.354;2023-03-20T04:44:10;97738.56;;;7.36;40.56
40285;BME280;25997;50.214;19.354;2023-03-20T04:47:14;97736.09;;;7.40;40.51
40285;BME280;25997;50.214;19.354;2023-03-20T04:50:17;97743.13;;;7.41;40.48
40285;BME280;25997;50.214;19.354;2023-03-20T04:53:20;97744.00;;;7.42;40.50
40285;BME280;25997;50.214;19.354;2023-03-20T04:56:25;97741.41;;;7.42;40.39
40285;BME280;25997;50.214;19.354;2023-03-20T04:59:40;97742.19;;;7.39;40.50
40285;BME280;25997;50.214;19.354;2023-03-20T05:02:42;97750.69;;;7.34;40.52
40285;BME280;25997;50.214;19.354;2023-03-20T05:05:45;97755.75;;;7.29;40.69
40285;BME280;25997;50.214;19.354;2023-03-20T05:08:48;97758.13;;;7.22;40.86
40285;BME280;25997;50.214;19.354;2023-03-20T05:11:52;97765.72;;;7.16;41.08
40285;BME280;25997;50.214;19.354;2023-03-20T05:15:15;97762.00;;;7.09;41.10
40285;BME280;25997;50.214;19.354;2023-03-20T05:18:23;97760.91;;;7.02;41.47
40285;BME280;25997;50.214;19.354;2023-03-20T05:21:49;97760.03;;;7.02;41.42
40285;BME280;25997;50.214;19.354;2023-03-20T05:24:52;97752.22;;;7.02;41.59
40285;BME280;25997;50.214;19.354;2023-03-20T05:28:13;97761.97;;;7.07;41.32
40285;BME280;25997;50.214;19.354;2023-03-20T05:31:45;97765.41;;;7.06;41.35
40285;BME280;25997;50.214;19.354;2023-03-20T05:35:10;97769.75;;;7.06;41.57
40285;BME280;25997;50.214;19.354;2023-03-20T05:38:31;97766.91;;;7.00;41.63
40285;BME280;25997;50.214;19.354;2023-03-20T05:41:54;97773.91;;;7.01;41.61
40285;BME280;25997;50.214;19.354;2023-03-20T05:45:15;97767.88;;;7.02;41.41
40285;BME280;25997;50.214;19.354;2023-03-20T05:48:57;97772.25;;;7.03;41.53
40285;BME280;25997;50.214;19.354;2023-03-20T05:52:18;97781.63;;;6.98;41.75
40285;BME280;25997;50.214;19.354;2023-03-20T05:55:42;97777.41;;;7.01;41.68
40285;BME280;25997;50.214;19.354;2023-03-20T05:59:09;97771.63;;;7.10;41.54
40285;BME280;25997;50.214;19.354;2023-03-20T06:02:30;97782.63;;;7.27;41.28
40285;BME280;25997;50.214;19.354;2023-03-20T06:05:48;97781.03;;;7.30;41.32
40285;BME280;25997;50.214;19.354;2023-03-20T06:08:50;97788.88;;;7.30;41.75
40285;BME280;25997;50.214;19.354;2023-03-20T06:11:53;97796.81;;;7.33;41.72
40285;BME280;25997;50.214;19.354;2023-03-20T06:14:56;97786.72;;;7.44;41.71
40285;BME280;25997;50.214;19.354;2023-03-20T06:17:59;97790.69;;;7.58;41.59
40285;BME280;25997;50.214;19.354;2023-03-20T06:21:05;97792.75;;;7.66;41.59
40285;BME280;25997;50.214;19.354;2023-03-20T06:24:07;97788.66;;;7.74;41.24
40285;BME280;25997;50.214;19.354;2023-03-20T06:27:10;97790.72;;;7.84;40.98
40285;BME280;25997;50.214;19.354;2023-03-20T06:30:14;97792.78;;;7.93;40.88
40285;BME280;25997;50.214;19.354;2023-03-20T06:33:19;97800.16;;;8.06;40.91
40285;BME280;25997;50.214;19.354;2023-03-20T06:36:41;97800.50;;;8.17;41.01
40285;BME280;25997;50.214;19.354;2023-03-20T06:39:50;97806.78;;;8.22;41.04
40285;BME280;25997;50.214;19.354;2023-03-20T06:42:53;97807.19;;;8.35;40.87
40285;BME280;25997;50.214;19.354;2023-03-20T06:45:59;97809.25;;;8.45;40.79
40285;BME280;25997;50.214;19.354;2023-03-20T06:49:04;97809.56;;;8.56;40.81
40285;BME280;25997;50.214;19.354;2023-03-20T06:52:13;97805.50;;;8.66;41.03
40285;BME280;25997;50.214;19.354;2023-03-20T06:55:17;97816.56;;;8.57;41.17
40285;BME280;25997;50.214;19.354;2023-03-20T06:58:20;97813.25;;;8.63;41.26
40285;BME280;25997;50.214;19.354;2023-03-20T07:01:25;97811.78;;;8.72;41.23
40285;BME280;25997;50.214;19.354;2023-03-20T07:04:28;97811.09;;;8.78;41.11
40285;BME280;25997;50.214;19.354;2023-03-20T07:07:37;97809.44;;;8.81;41.12
40285;BME280;25997;50.214;19.354;2023-03-20T07:10:39;97817.47;;;8.87;41.15
40285;BME280;25997;50.214;19.354;2023-03-20T07:13:42;97825.31;;;8.87;41.48
40285;BME280;25997;50.214;19.354;2023-03-20T07:16:55;97832.56;;;8.96;41.16
40285;BME280;25997;50.214;19.354;2023-03-20T07:19:58;97830.97;;;8.99;41.12
40285;BME280;25997;50.214;19.354;2023-03-20T07:23:02;97840.56;;;9.00;41.45
40285;BME280;25997;50.214;19.354;2023-03-20T07:26:07;97842.31;;;9.00;41.31
40285;BME280;25997;50.214;19.354;2023-03-20T07:29:10;97835.44;;;9.03;41.51
40285;BME280;25997;50.214;19.354;2023-03-20T07:32:13;97837.56;;;9.16;41.28
40285;BME280;25997;50.214;19.354;2023-03-20T07:35:26;97839.63;;;9.28;41.12
40285;BME280;25997;50.214;19.354;2023-03-20T07:38:31;97836.72;;;9.49;41.02
40285;BME280;25997;50.214;19.354;2023-03-20T07:41:44;97843.66;;;9.81;40.62
40285;BME280;25997;50.214;19.354;2023-03-20T07:44:57;97837.88;;;9.94;40.69
40285;BME280;25997;50.214;19.354;2023-03-20T07:48:00;97841.91;;;10.14;40.60
40285;BME280;25997;50.214;19.354;2023-03-20T07:51:03;97841.19;;;10.20;40.79
40285;BME280;25997;50.214;19.354;2023-03-20T07:54:07;97834.53;;;10.34;40.45
40285;BME280;25997;50.214;19.354;2023-03-20T07:57:11;97841.81;;;10.47;40.83
40285;BME280;25997;50.214;19.354;2023-03-20T08:03:19;97853.16;;;10.83;41.43
40285;BME280;25997;50.214;19.354;2023-03-20T08:06:21;97852.44;;;10.90;41.35
40285;BME280;25997;50.214;19.354;2023-03-20T08:09:25;97847.38;;;10.99;41.46
40285;BME280;25997;50.214;19.354;2023-03-20T08:12:28;97852.38;;;10.87;41.77
40285;BME280;25997;50.214;19.354;2023-03-20T08:15:30;97856.25;;;11.04;41.55
40285;BME280;25997;50.214;19.354;2023-03-20T08:18:33;97845.78;;;11.07;41.54
40285;BME280;25997;50.214;19.354;2023-03-20T08:21:36;97849.34;;;11.09;41.32
40285;BME280;25997;50.214;19.354;2023-03-20T08:24:40;97847.00;;;11.21;41.25
40285;BME280;25997;50.214;19.354;2023-03-20T08:27:42;97849.91;;;11.35;41.10
40285;BME280;25997;50.214;19.354;2023-03-20T08:30:46;97857.00;;;11.39;40.93
40285;BME280;25997;50.214;19.354;2023-03-20T08:33:49;97853.66;;;11.48;41.00
40285;BME280;25997;50.214;19.354;2023-03-20T08:36:52;97861.47;;;11.44;41.13
40285;BME280;25997;50.214;19.354;2023-03-20T08:39:56;97857.84;;;11.38;41.07
40285;BME280;25997;50.214;19.354;2023-03-20T08:42:58;97862.56;;;11.11;41.76
40285;BME280;25997;50.214;19.354;2023-03-20T08:46:01;97859.94;;;11.11;41.75
40285;BME280;25997;50.214;19.354;2023-03-20T08:49:03;97859.09;;;11.13;41.66
40285;BME280;25997;50.214;19.354;2023-03-20T08:52:06;97861.84;;;11.19;41.65
40285;BME280;25997;50.214;19.354;2023-03-20T08:55:10;97861.56;;;11.49;41.41
40285;BME280;25997;50.214;19.354;2023-03-20T08:58:12;97854.91;;;11.68;41.07
40285;BME280;25997;50.214;19.354;2023-03-20T09:01:15;97858.47;;;11.70;41.06
40285;BME280;25997;50.214;19.354;2023-03-20T09:04:17;97850.91;;;11.88;41.02
40285;BME280;25997;50.214;19.354;2023-03-20T09:07:20;97854.69;;;12.03;40.80
40285;BME280;25997;50.214;19.354;2023-03-20T09:10:24;97850.69;;;12.24;40.78
40285;BME280;25997;50.214;19.354;2023-03-20T09:13:26;97855.25;;;12.35;40.64
40285;BME280;25997;50.214;19.354;2023-03-20T09:16:29;97861.72;;;12.55;40.51
40285;BME280;25997;50.214;19.354;2023-03-20T09:19:32;97868.03;;;12.66;40.47
40285;BME280;25997;50.214;19.354;2023-03-20T09:22:35;97859.25;;;12.66;40.46
40285;BME280;25997;50.214;19.354;2023-03-20T09:25:39;97854.31;;;12.88;40.34
40285;BME280;25997;50.214;19.354;2023-03-20T09:28:42;97858.56;;;12.80;40.34
40285;BME280;25997;50.214;19.354;2023-03-20T09:31:44;97856.63;;;12.67;40.77
40285;BME280;25997;50.214;19.354;2023-03-20T09:34:47;97861.00;;;12.67;40.88
40285;BME280;25997;50.214;19.354;2023-03-20T09:37:49;97859.09;;;12.55;41.26
40285;BME280;25997;50.214;19.354;2023-03-20T09:40:56;97860.59;;;12.40;41.60
40285;BME280;25997;50.214;19.354;2023-03-20T09:44:08;97856.31;;;12.46;41.60
40285;BME280;25997;50.214;19.354;2023-03-20T09:47:16;97856.53;;;12.60;42.09
40285;BME280;25997;50.214;19.354;2023-03-20T09:50:25;97858.75;;;12.94;41.79
40285;BME280;25997;50.214;19.354;2023-03-20T09:53:30;97853.84;;;13.18;41.57
40285;BME280;25997;50.214;19.354;2023-03-20T09:56:36;97854.78;;;13.23;41.69
40285;BME280;25997;50.214;19.354;2023-03-20T09:59:39;97850.88;;;13.64;41.13
40285;BME280;25997;50.214;19.354;2023-03-20T10:02:47;97858.31;;;14.00;40.96
40285;BME280;25997;50.214;19.354;2023-03-20T10:05:53;97853.91;;;13.99;41.56
40285;BME280;25997;50.214;19.354;2023-03-20T10:08:58;97863.38;;;13.81;41.77
40285;BME280;25997;50.214;19.354;2023-03-20T10:12:20;97850.06;;;13.69;42.42
40285;BME280;25997;50.214;19.354;2023-03-20T10:15:35;97849.00;;;13.54;43.21
40285;BME280;25997;50.214;19.354;2023-03-20T10:18:42;97849.97;;;13.59;43.64
40285;BME280;25997;50.214;19.354;2023-03-20T10:21:49;97851.31;;;13.27;44.93
40285;BME280;25997;50.214;19.354;2023-03-20T10:24:56;97856.59;;;13.24;45.02
40285;BME280;25997;50.214;19.354;2023-03-20T10:28:04;97849.69;;;13.35;44.59
40285;BME280;25997;50.214;19.354;2023-03-20T10:31:27;97857.03;;;13.62;44.24
40285;BME280;25997;50.214;19.354;2023-03-20T10:34:44;97852.91;;;13.88;44.20
40285;BME280;25997;50.214;19.354;2023-03-20T10:38:00;97850.91;;;13.68;44.81
40285;BME280;25997;50.214;19.354;2023-03-20T10:41:10;97849.13;;;13.62;44.75
40285;BME280;25997;50.214;19.354;2023-03-20T10:44:21;97839.63;;;13.82;44.67
40285;BME280;25997;50.214;19.354;2023-03-20T10:47:29;97844.13;;;13.92;44.96
40285;BME280;25997;50.214;19.354;2023-03-20T10:50:36;97837.44;;;14.29;44.28
40285;BME280;25997;50.214;19.354;2023-03-20T10:53:46;97840.94;;;14.22;44.38
40285;BME280;25997;50.214;19.354;2023-03-20T10:56:50;97845.28;;;14.15;44.58
40285;BME280;25997;50.214;19.354;2023-03-20T10:59:58;97838.13;;;14.04;44.97
40285;BME280;25997;50.214;19.354;2023-03-20T11:03:00;97838.94;;;13.97;44.77
40285;BME280;25997;50.214;19.354;2023-03-20T11:06:07;97837.00;;;13.85;45.34
40285;BME280;25997;50.214;19.354;2023-03-20T11:09:19;97838.47;;;13.53;46.67
40285;BME280;25997;50.214;19.354;2023-03-20T11:12:21;97832.06;;;13.34;46.57
40285;BME280;25997;50.214;19.354;2023-03-20T11:15:26;97836.41;;;13.29;47.04
40285;BME280;25997;50.214;19.354;2023-03-20T11:18:30;97838.06;;;13.20;47.17
40285;BME280;25997;50.214;19.354;2023-03-20T11:21:34;97845.16;;;13.25;46.99
40285;BME280;25997;50.214;19.354;2023-03-20T11:24:40;97826.91;;;13.42;46.92
40285;BME280;25997;50.214;19.354;2023-03-20T11:27:43;97825.16;;;13.47;47.13
40285;BME280;25997;50.214;19.354;2023-03-20T11:30:49;97821.13;;;13.81;46.80
40285;BME280;25997;50.214;19.354;2023-03-20T11:33:59;97816.25;;;14.24;46.18
40285;BME280;25997;50.214;19.354;2023-03-20T11:37:06;97814.31;;;15.35;44.81
40285;BME280;25997;50.214;19.354;2023-03-20T11:40:23;97818.00;;;15.88;43.46
40285;BME280;25997;50.214;19.354;2023-03-20T11:43:26;97810.91;;;15.72;43.47
40285;BME280;25997;50.214;19.354;2023-03-20T11:46:30;97815.31;;;15.68;43.02
40285;BME280;25997;50.214;19.354;2023-03-20T11:49:44;97800.16;;;15.28;43.54
40285;BME280;25997;50.214;19.354;2023-03-20T11:52:49;97799.22;;;15.16;43.83
40285;BME280;25997;50.214;19.354;2023-03-20T11:56:04;97807.22;;;15.22;43.33
40285;BME280;25997;50.214;19.354;2023-03-20T11:59:12;97805.34;;;14.99;43.65
40285;BME280;25997;50.214;19.354;2023-03-20T12:02:22;97798.16;;;14.77;43.92
40285;BME280;25997;50.214;19.354;2023-03-20T12:05:31;97794.75;;;14.96;43.84
40285;BME280;25997;50.214;19.354;2023-03-20T12:08:36;97794.16;;;15.82;42.63
40285;BME280;25997;50.214;19.354;2023-03-20T12:11:45;97795.03;;;16.02;42.09
40285;BME280;25997;50.214;19.354;2023-03-20T12:14:54;97783.34;;;17.18;40.53
40285;BME280;25997;50.214;19.354;2023-03-20T12:18:01;97794.88;;;17.26;39.98
40285;BME280;25997;50.214;19.354;2023-03-20T12:21:08;97780.06;;;16.51;40.37
40285;BME280;25997;50.214;19.354;2023-03-20T12:24:16;97791.50;;;16.05;41.20
40285;BME280;25997;50.214;19.354;2023-03-20T12:27:27;97788.84;;;15.85;41.30
40285;BME280;25997;50.214;19.354;2023-03-20T12:30:39;97782.59;;;15.56;41.32
40285;BME280;25997;50.214;19.354;2023-03-20T12:33:48;97785.25;;;15.56;41.35
40285;BME280;25997;50.214;19.354;2023-03-20T12:36:52;97779.06;;;15.51;41.31
40285;BME280;25997;50.214;19.354;2023-03-20T12:39:59;97788.72;;;15.32;41.40
40285;BME280;25997;50.214;19.354;2023-03-20T12:43:11;97779.91;;;15.38;41.59
40285;BME280;25997;50.214;19.354;2023-03-20T12:46:24;97775.53;;;15.53;41.82
40285;BME280;25997;50.214;19.354;2023-03-20T12:49:35;97771.16;;;15.55;41.70
40285;BME280;25997;50.214;19.354;2023-03-20T12:52:48;97772.03;;;15.59;41.38
40285;BME280;25997;50.214;19.354;2023-03-20T12:56:02;97767.69;;;15.79;41.28
40285;BME280;25997;50.214;19.354;2023-03-20T12:59:12;97763.22;;;15.69;41.18
40285;BME280;25997;50.214;19.354;2023-03-20T13:02:31;97768.50;;;15.57;41.09
40285;BME280;25997;50.214;19.354;2023-03-20T13:05:42;97772.88;;;15.46;41.19
40285;BME280;25997;50.214;19.354;2023-03-20T13:08:57;97779.88;;;15.20;41.65
40285;BME280;25997;50.214;19.354;2023-03-20T13:12:09;97780.63;;;14.96;42.05
40285;BME280;25997;50.214;19.354;2023-03-20T13:15:24;97772.59;;;14.75;42.20
40285;BME280;25997;50.214;19.354;2023-03-20T13:18:41;97776.09;;;14.71;42.37
40285;BME280;25997;50.214;19.354;2023-03-20T13:21:55;97771.50;;;14.43;42.56
40285;BME280;25997;50.214;19.354;2023-03-20T13:25:03;97767.91;;;14.31;42.72
40285;BME280;25997;50.214;19.354;2023-03-20T13:28:14;97773.22;;;14.33;42.97
40285;BME280;25997;50.214;19.354;2023-03-20T13:31:30;97774.97;;;14.31;43.28
40285;BME280;25997;50.214;19.354;2023-03-20T13:34:54;97763.53;;;14.38;43.06
40285;BME280;25997;50.214;19.354;2023-03-20T13:38:07;97766.16;;;14.30;43.13
40285;BME280;25997;50.214;19.354;2023-03-20T13:41:13;97756.41;;;14.25;43.06
40285;BME280;25997;50.214;19.354;2023-03-20T13:44:17;97756.50;;;14.39;42.88
40285;BME280;25997;50.214;19.354;2023-03-20T13:47:23;97759.09;;;14.28;43.18
40285;BME280;25997;50.214;19.354;2023-03-20T13:50:40;97760.00;;;14.33;43.50
40285;BME280;25997;50.214;19.354;2023-03-20T13:53:52;97757.44;;;14.44;43.16
40285;BME280;25997;50.214;19.354;2023-03-20T13:57:00;97763.63;;;14.52;43.28
40285;BME280;25997;50.214;19.354;2023-03-20T14:00:17;97754.81;;;14.48;43.19
40285;BME280;25997;50.214;19.354;2023-03-20T14:03:25;97757.41;;;14.39;43.31
40285;BME280;25997;50.214;19.354;2023-03-20T14:06:47;97759.09;;;14.28;43.46
40285;BME280;25997;50.214;19.354;2023-03-20T14:09:53;97759.06;;;14.22;43.49
40285;BME280;25997;50.214;19.354;2023-03-20T14:12:59;97755.59;;;14.30;43.46
40285;BME280;25997;50.214;19.354;2023-03-20T14:16:06;97759.94;;;14.27;43.35
40285;BME280;25997;50.214;19.354;2023-03-20T14:19:16;97754.59;;;14.18;43.56
40285;BME280;25997;50.214;19.354;2023-03-20T14:22:19;97758.09;;;14.11;44.14
40285;BME280;25997;50.214;19.354;2023-03-20T14:25:24;97759.72;;;13.95;43.53
40285;BME280;25997;50.214;19.354;2023-03-20T14:28:29;97757.88;;;13.91;43.76
40285;BME280;25997;50.214;19.354;2023-03-20T14:31:35;97760.56;;;13.94;43.85
40285;BME280;25997;50.214;19.354;2023-03-20T14:34:46;97767.47;;;13.80;44.66
40285;BME280;25997;50.214;19.354;2023-03-20T14:38:19;97763.03;;;13.76;44.96
40285;BME280;25997;50.214;19.354;2023-03-20T14:41:31;97763.03;;;13.76;44.45
40285;BME280;25997;50.214;19.354;2023-03-20T14:44:50;97762.13;;;13.74;44.88
40285;BME280;25997;50.214;19.354;2023-03-20T14:48:07;97762.06;;;13.65;44.68
40285;BME280;25997;50.214;19.354;2023-03-20T14:51:22;97768.13;;;13.55;44.85
40285;BME280;25997;50.214;19.354;2023-03-20T14:54:27;97763.69;;;13.52;45.01
40285;BME280;25997;50.214;19.354;2023-03-20T14:57:32;97761.00;;;13.46;45.79
40285;BME280;25997;50.214;19.354;2023-03-20T15:00:44;97763.25;;;13.10;46.83
40285;BME280;25997;50.214;19.354;2023-03-20T15:03:50;97758.50;;;12.85;47.32
40285;BME280;25997;50.214;19.354;2023-03-20T15:06:57;97752.22;;;12.74;47.66
40285;BME280;25997;50.214;19.354;2023-03-20T15:10:01;97760.84;;;12.62;47.99
40285;BME280;25997;50.214;19.354;2023-03-20T15:13:06;97756.38;;;12.57;48.49
40285;BME280;25997;50.214;19.354;2023-03-20T15:16:11;97753.81;;;12.61;48.78
40285;BME280;25997;50.214;19.354;2023-03-20T15:19:17;97752.16;;;12.69;48.94
40285;BME280;25997;50.214;19.354;2023-03-20T15:22:20;97760.03;;;12.68;48.75
40285;BME280;25997;50.214;19.354;2023-03-20T15:25:28;97753.88;;;12.64;49.22
40285;BME280;25997;50.214;19.354;2023-03-20T15:28:33;97752.91;;;12.61;48.98
40285;BME280;25997;50.214;19.354;2023-03-20T15:31:39;97743.28;;;12.63;49.20
40285;BME280;25997;50.214;19.354;2023-03-20T15:34:42;97746.88;;;12.69;49.41
40285;BME280;25997;50.214;19.354;2023-03-20T15:37:48;97747.00;;;12.80;49.43
40285;BME280;25997;50.214;19.354;2023-03-20T15:40:53;97747.94;;;12.83;49.29
40285;BME280;25997;50.214;19.354;2023-03-20T15:44:07;97748.91;;;12.88;49.47
40285;BME280;25997;50.214;19.354;2023-03-20T15:47:15;97747.13;;;12.87;49.39
40285;BME280;25997;50.214;19.354;2023-03-20T15:50:21;97748.91;;;12.90;49.59
40285;BME280;25997;50.214;19.354;2023-03-20T15:53:28;97754.19;;;12.91;49.59
40285;BME280;25997;50.214;19.354;2023-03-20T15:56:32;97753.28;;;12.91;49.61
40285;BME280;25997;50.214;19.354;2023-03-20T15:59:37;97756.88;;;12.93;49.69
40285;BME280;25997;50.214;19.354;2023-03-20T16:02:40;97762.97;;;12.92;49.64
40285;BME280;25997;50.214;19.354;2023-03-20T16:05:43;97761.19;;;12.88;49.61
40285;BME280;25997;50.214;19.354;2023-03-20T16:08:55;97756.81;;;12.88;49.83
40285;BME280;25997;50.214;19.354;2023-03-20T16:12:00;97758.50;;;12.85;49.76
40285;BME280;25997;50.214;19.354;2023-03-20T16:15:05;97749.66;;;12.80;49.71
40285;BME280;25997;50.214;19.354;2023-03-20T16:18:12;97751.31;;;12.70;49.85
40285;BME280;25997;50.214;19.354;2023-03-20T16:21:18;97740.66;;;12.63;49.94
40285;BME280;25997;50.214;19.354;2023-03-20T16:24:26;97745.84;;;12.57;50.01
40285;BME280;25997;50.214;19.354;2023-03-20T16:27:32;97747.38;;;12.40;50.38
40285;BME280;25997;50.214;19.354;2023-03-20T16:30:37;97740.22;;;12.31;50.30
40285;BME280;25997;50.214;19.354;2023-03-20T16:33:40;97742.75;;;12.25;50.62
40285;BME280;25997;50.214;19.354;2023-03-20T16:36:50;97738.31;;;12.21;50.49
40285;BME280;25997;50.214;19.354;2023-03-20T16:40:13;97743.53;;;12.18;50.62